sensor_id;sensor_type;location;lat;lon;timestamp;P1;durP1;ratioP1;P2;durP2;ratioP2
68866;SDS011;56451;44.804;20.476;2022-08-21T00:00:32;33.83;;;19.50;;
68866;SDS011;56451;44.804;20.476;2022-08-21T00:02:59;30.83;;;21.33;;
68866;SDS011;56451;44.804;20.476;2022-08-21T00:05:27;30.90;;;21.25;;
68866;SDS011;56451;44.804;20.476;2022-08-21T00:07:54;31.80;;;20.55;;
68866;SDS011;56451;44.804;20.476;2022-08-21T00:10:20;35.65;;;21.00;;
68866;SDS011;56451;44.804;20.476;2022-08-21T00:12:46;31.07;;;20.17;;
68866;SDS011;56451;44.804;20.476;2022-08-21T00:15:14;32.00;;;21.17;;
68866;SDS011;56451;44.804;20.476;2022-08-21T00:17:44;33.10;;;22.30;;
68866;SDS011;56451;44.804;20.476;2022-08-21T00:20:10;30.17;;;22.58;;
68866;SDS011;56451;44.804;20.476;2022-08-21T00:22:38;36.10;;;25.13;;
68866;SDS011;56451;44.804;20.476;2022-08-21T00:25:04;35.15;;;25.17;;
68866;SDS011;56451;44.804;20.476;2022-08-21T00:27:31;40.97;;;27.55;;
68866;SDS011;56451;44.804;20.476;2022-08-21T00:29:57;38.25;;;27.83;;
68866;SDS011;56451;44.804;20.476;2022-08-21T00:32:24;40.70;;;27.47;;
68866;SDS011;56451;44.804;20.476;2022-08-21T00:34:52;34.95;;;23.63;;
68866;SDS011;56451;44.804;20.476;2022-08-21T00:37:18;33.42;;;22.75;;
68866;SDS011;56451;44.804;20.476;2022-08-21T00:39:44;30.23;;;19.25;;
68866;SDS011;56451;44.804;20.476;2022-08-21T00:42:10;24.13;;;16.27;;
68866;SDS011;56451;44.804;20.476;2022-08-21T00:44:43;22.52;;;15.35;;
68866;SDS011;56451;44.804;20.476;2022-08-21T00:47:10;19.90;;;12.32;;
68866;SDS011;56451;44.804;20.476;2022-08-21T00:49:37;19.40;;;12.18;;
68866;SDS011;56451;44.804;20.476;2022-08-21T00:52:04;15.18;;;10.38;;
68866;SDS011;56451;44.804;20.476;2022-08-21T00:54:31;16.63;;;11.03;;
68866;SDS011;56451;44.804;20.476;2022-08-21T00:57:00;17.98;;;9.95;;
68866;SDS011;56451;44.804;20.476;2022-08-21T00:59:29;13.70;;;9.57;;
68866;SDS011;56451;44.804;20.476;2022-08-21T01:02:00;14.20;;;9.35;;
68866;SDS011;56451;44.804;20.476;2022-08-21T01:04:26;16.63;;;8.80;;
68866;SDS011;56451;44.804;20.476;2022-08-21T01:06:52;10.37;;;7.13;;
68866;SDS011;56451;44.804;20.476;2022-08-21T01:09:18;10.05;;;6.30;;
68866;SDS011;56451;44.804;20.476;2022-08-21T01:11:44;12.25;;;5.43;;
68866;SDS011;56451;44.804;20.476;2022-08-21T01:14:11;11.93;;;5.63;;
68866;SDS011;56451;44.804;20.476;2022-08-21T01:16:39;6.43;;;4.40;;
68866;SDS011;56451;44.804;20.476;2022-08-21T01:19:09;6.93;;;3.83;;
68866;SDS011;56451;44.804;20.476;2022-08-21T01:21:36;4.10;;;3.15;;
68866;SDS011;56451;44.804;20.476;2022-08-21T01:24:02;3.25;;;2.58;;
68866;SDS011;56451;44.804;20.476;2022-08-21T01:26:30;2.70;;;1.67;;
68866;SDS011;56451;44.804;20.476;2022-08-21T01:29:46;3.00;;;1.83;;
68866;SDS011;56451;44.804;20.476;2022-08-21T01:32:02;3.63;;;1.70;;
68866;SDS011;56451;44.804;20.476;2022-08-21T01:34:31;3.20;;;1.67;;
68866;SDS011;56451;44.804;20.476;2022-08-21T01:36:59;3.72;;;1.95;;
68866;SDS011;56451;44.804;20.476;2022-08-21T01:39:25;3.07;;;2.10;;
68866;SDS011;56451;44.804;20.476;2022-08-21T01:41:51;5.82;;;2.35;;
68866;SDS011;56451;44.804;20.476;2022-08-21T01:44:20;4.35;;;2.20;;
68866;SDS011;56451;44.804;20.476;2022-08-21T01:46:46;3.20;;;2.20;;
68866;SDS011;56451;44.804;20.476;2022-08-21T01:49:13;2.40;;;1.90;;
68866;SDS011;56451;44.804;20.476;2022-08-21T01:51:40;4.60;;;2.45;;
68866;SDS011;56451;44.804;20.476;2022-08-21T01:54:07;3.78;;;2.47;;
68866;SDS011;56451;44.804;20.476;2022-08-21T01:56:37;4.75;;;2.35;;
68866;SDS011;56451;44.804;20.476;2022-08-21T01:59:04;3.03;;;2.07;;
68866;SDS011;56451;44.804;20.476;2022-08-21T02:01:31;3.35;;;1.67;;
68866;SDS011;56451;44.804;20.476;2022-08-21T02:03:56;2.83;;;1.67;;
68866;SDS011;56451;44.804;20.476;2022-08-21T02:06:24;2.20;;;1.30;;
68866;SDS011;56451;44.804;20.476;2022-08-21T02:08:50;2.55;;;1.45;;
68866;SDS011;56451;44.804;20.476;2022-08-21T02:11:17;3.55;;;2.00;;
68866;SDS011;56451;44.804;20.476;2022-08-21T02:13:42;5.15;;;2.15;;
68866;SDS011;56451;44.804;20.476;2022-08-21T02:16:08;3.50;;;1.90;;
68866;SDS011;56451;44.804;20.476;2022-08-21T02:18:35;4.45;;;1.95;;
68866;SDS011;56451;44.804;20.476;2022-08-21T02:21:01;2.90;;;1.92;;
68866;SDS011;56451;44.804;20.476;2022-08-21T02:23:28;4.63;;;2.33;;
68866;SDS011;56451;44.804;20.476;2022-08-21T02:25:56;5.60;;;2.35;;
68866;SDS011;56451;44.804;20.476;2022-08-21T02:28:23;3.80;;;2.33;;
68866;SDS011;56451;44.804;20.476;2022-08-21T02:30:49;4.13;;;2.38;;
68866;SDS011;56451;44.804;20.476;2022-08-21T02:33:16;4.40;;;1.92;;
68866;SDS011;56451;44.804;20.476;2022-08-21T02:35:43;3.03;;;1.75;;
68866;SDS011;56451;44.804;20.476;2022-08-21T02:38:12;4.38;;;1.98;;
68866;SDS011;56451;44.804;20.476;2022-08-21T02:40:41;3.47;;;1.90;;
68866;SDS011;56451;44.804;20.476;2022-08-21T02:43:08;2.90;;;2.15;;
68866;SDS011;56451;44.804;20.476;2022-08-21T02:45:34;3.15;;;1.83;;
68866;SDS011;56451;44.804;20.476;2022-08-21T02:48:03;3.50;;;2.20;;
68866;SDS011;56451;44.804;20.476;2022-08-21T02:50:32;3.25;;;2.03;;
68866;SDS011;56451;44.804;20.476;2022-08-21T02:53:00;3.38;;;2.00;;
68866;SDS011;56451;44.804;20.476;2022-08-21T02:55:27;3.00;;;1.83;;
68866;SDS011;56451;44.804;20.476;2022-08-21T02:57:56;2.70;;;1.60;;
68866;SDS011;56451;44.804;20.476;2022-08-21T03:00:23;2.37;;;1.77;;
68866;SDS011;56451;44.804;20.476;2022-08-21T03:02:50;2.88;;;1.48;;
68866;SDS011;56451;44.804;20.476;2022-08-21T03:05:17;2.72;;;1.75;;
68866;SDS011;56451;44.804;20.476;2022-08-21T03:07:44;3.83;;;1.90;;
68866;SDS011;56451;44.804;20.476;2022-08-21T03:10:11;3.72;;;2.90;;
68866;SDS011;56451;44.804;20.476;2022-08-21T03:12:38;3.80;;;3.17;;
68866;SDS011;56451;44.804;20.476;2022-08-21T03:15:05;4.20;;;2.70;;
68866;SDS011;56451;44.804;20.476;2022-08-21T03:17:33;3.97;;;2.50;;
68866;SDS011;56451;44.804;20.476;2022-08-21T03:19:59;4.33;;;3.20;;
68866;SDS011;56451;44.804;20.476;2022-08-21T03:22:26;3.10;;;2.78;;
68866;SDS011;56451;44.804;20.476;2022-08-21T03:24:52;3.63;;;2.53;;
68866;SDS011;56451;44.804;20.476;2022-08-21T03:27:18;3.08;;;2.30;;
68866;SDS011;56451;44.804;20.476;2022-08-21T03:29:44;3.47;;;2.60;;
68866;SDS011;56451;44.804;20.476;2022-08-21T03:32:10;2.87;;;2.47;;
68866;SDS011;56451;44.804;20.476;2022-08-21T03:34:36;4.47;;;2.90;;
68866;SDS011;56451;44.804;20.476;2022-08-21T03:37:04;3.67;;;2.47;;
68866;SDS011;56451;44.804;20.476;2022-08-21T03:39:31;2.83;;;2.53;;
68866;SDS011;56451;44.804;20.476;2022-08-21T03:41:56;3.80;;;2.38;;
68866;SDS011;56451;44.804;20.476;2022-08-21T03:44:22;3.05;;;2.03;;
68866;SDS011;56451;44.804;20.476;2022-08-21T03:46:48;3.20;;;2.57;;
68866;SDS011;56451;44.804;20.476;2022-08-21T03:49:14;3.10;;;2.45;;
68866;SDS011;56451;44.804;20.476;2022-08-21T03:51:40;3.55;;;2.70;;
68866;SDS011;56451;44.804;20.476;2022-08-21T03:54:06;3.43;;;2.73;;
68866;SDS011;56451;44.804;20.476;2022-08-21T03:56:31;4.13;;;3.10;;
68866;SDS011;56451;44.804;20.476;2022-08-21T03:58:57;4.37;;;2.90;;
68866;SDS011;56451;44.804;20.476;2022-08-21T04:01:23;5.38;;;3.55;;
68866;SDS011;56451;44.804;20.476;2022-08-21T04:03:49;5.63;;;3.90;;
68866;SDS011;56451;44.804;20.476;2022-08-21T04:06:15;4.90;;;4.20;;
68866;SDS011;56451;44.804;20.476;2022-08-21T04:08:41;4.63;;;4.20;;
68866;SDS011;56451;44.804;20.476;2022-08-21T04:11:08;6.35;;;4.72;;
68866;SDS011;56451;44.804;20.476;2022-08-21T04:13:35;6.50;;;5.07;;
68866;SDS011;56451;44.804;20.476;2022-08-21T04:16:02;7.90;;;6.10;;
68866;SDS011;56451;44.804;20.476;2022-08-21T04:18:28;8.45;;;6.63;;
68866;SDS011;56451;44.804;20.476;2022-08-21T04:20:54;10.95;;;7.45;;
68866;SDS011;56451;44.804;20.476;2022-08-21T04:23:22;9.17;;;6.60;;
68866;SDS011;56451;44.804;20.476;2022-08-21T04:25:48;11.70;;;7.50;;
68866;SDS011;56451;44.804;20.476;2022-08-21T04:28:14;10.85;;;7.53;;
68866;SDS011;56451;44.804;20.476;2022-08-21T04:30:40;10.50;;;7.17;;
68866;SDS011;56451;44.804;20.476;2022-08-21T04:33:06;10.50;;;7.57;;
68866;SDS011;56451;44.804;20.476;2022-08-21T04:35:32;11.23;;;7.50;;
68866;SDS011;56451;44.804;20.476;2022-08-21T04:37:58;11.65;;;8.55;;
68866;SDS011;56451;44.804;20.476;2022-08-21T04:40:25;13.43;;;8.00;;
68866;SDS011;56451;44.804;20.476;2022-08-21T04:42:53;9.93;;;7.65;;
68866;SDS011;56451;44.804;20.476;2022-08-21T04:45:25;10.88;;;8.18;;
68866;SDS011;56451;44.804;20.476;2022-08-21T04:47:57;9.45;;;7.07;;
68866;SDS011;56451;44.804;20.476;2022-08-21T04:50:36;12.95;;;7.90;;
68866;SDS011;56451;44.804;20.476;2022-08-21T04:53:13;11.17;;;7.83;;
68866;SDS011;56451;44.804;20.476;2022-08-21T04:56:02;12.07;;;8.35;;
68866;SDS011;56451;44.804;20.476;2022-08-21T04:58:33;12.18;;;8.35;;
68866;SDS011;56451;44.804;20.476;2022-08-21T05:01:00;8.60;;;7.60;;
68866;SDS011;56451;44.804;20.476;2022-08-21T05:03:27;14.10;;;8.05;;
68866;SDS011;56451;44.804;20.476;2022-08-21T05:05:55;10.20;;;7.30;;
68866;SDS011;56451;44.804;20.476;2022-08-21T05:08:21;7.97;;;6.75;;
68866;SDS011;56451;44.804;20.476;2022-08-21T05:10:50;9.02;;;6.10;;
68866;SDS011;56451;44.804;20.476;2022-08-21T05:13:17;10.45;;;6.70;;
68866;SDS011;56451;44.804;20.476;2022-08-21T05:15:43;9.23;;;6.00;;
68866;SDS011;56451;44.804;20.476;2022-08-21T05:18:09;9.32;;;6.35;;
68866;SDS011;56451;44.804;20.476;2022-08-21T05:20:35;10.68;;;6.47;;
68866;SDS011;56451;44.804;20.476;2022-08-21T05:23:01;9.40;;;5.50;;
68866;SDS011;56451;44.804;20.476;2022-08-21T05:25:33;9.45;;;6.10;;
68866;SDS011;56451;44.804;20.476;2022-08-21T05:27:59;9.43;;;6.55;;
68866;SDS011;56451;44.804;20.476;2022-08-21T05:30:25;7.10;;;6.30;;
68866;SDS011;56451;44.804;20.476;2022-08-21T05:32:55;8.98;;;6.03;;
68866;SDS011;56451;44.804;20.476;2022-08-21T05:35:25;11.13;;;6.88;;
68866;SDS011;56451;44.804;20.476;2022-08-21T05:37:52;10.93;;;7.65;;
68866;SDS011;56451;44.804;20.476;2022-08-21T05:40:18;9.27;;;7.60;;
68866;SDS011;56451;44.804;20.476;2022-08-21T05:42:44;10.80;;;7.32;;
68866;SDS011;56451;44.804;20.476;2022-08-21T05:45:10;10.73;;;8.25;;
68866;SDS011;56451;44.804;20.476;2022-08-21T05:47:36;10.60;;;8.07;;
68866;SDS011;56451;44.804;20.476;2022-08-21T05:50:03;11.57;;;8.53;;
68866;SDS011;56451;44.804;20.476;2022-08-21T05:52:29;11.93;;;8.38;;
68866;SDS011;56451;44.804;20.476;2022-08-21T05:54:55;13.02;;;8.68;;
68866;SDS011;56451;44.804;20.476;2022-08-21T05:57:21;12.67;;;8.70;;
68866;SDS011;56451;44.804;20.476;2022-08-21T05:59:47;13.50;;;9.02;;
68866;SDS011;56451;44.804;20.476;2022-08-21T06:02:14;10.20;;;8.45;;
68866;SDS011;56451;44.804;20.476;2022-08-21T06:04:41;11.85;;;8.40;;
68866;SDS011;56451;44.804;20.476;2022-08-21T06:07:07;11.53;;;8.20;;
68866;SDS011;56451;44.804;20.476;2022-08-21T06:09:33;12.10;;;8.05;;
68866;SDS011;56451;44.804;20.476;2022-08-21T06:12:03;12.57;;;8.07;;
68866;SDS011;56451;44.804;20.476;2022-08-21T06:14:34;13.57;;;8.95;;
68866;SDS011;56451;44.804;20.476;2022-08-21T06:17:02;12.30;;;8.00;;
68866;SDS011;56451;44.804;20.476;2022-08-21T06:19:35;13.00;;;8.88;;
68866;SDS011;56451;44.804;20.476;2022-08-21T06:22:02;11.43;;;8.23;;
68866;SDS011;56451;44.804;20.476;2022-08-21T06:24:28;13.30;;;8.50;;
68866;SDS011;56451;44.804;20.476;2022-08-21T06:26:54;12.00;;;8.50;;
68866;SDS011;56451;44.804;20.476;2022-08-21T06:29:20;12.27;;;8.70;;
68866;SDS011;56451;44.804;20.476;2022-08-21T06:31:47;14.25;;;8.57;;
68866;SDS011;56451;44.804;20.476;2022-08-21T06:34:14;12.48;;;8.48;;
68866;SDS011;56451;44.804;20.476;2022-08-21T06:36:40;11.55;;;8.48;;
68866;SDS011;56451;44.804;20.476;2022-08-21T06:39:06;12.38;;;8.10;;
68866;SDS011;56451;44.804;20.476;2022-08-21T06:41:32;10.90;;;8.30;;
68866;SDS011;56451;44.804;20.476;2022-08-21T06:43:58;13.40;;;8.45;;
68866;SDS011;56451;44.804;20.476;2022-08-21T06:46:27;14.75;;;7.93;;
68866;SDS011;56451;44.804;20.476;2022-08-21T06:48:54;9.93;;;7.45;;
68866;SDS011;56451;44.804;20.476;2022-08-21T06:51:21;13.27;;;8.00;;
68866;SDS011;56451;44.804;20.476;2022-08-21T06:53:48;13.33;;;7.73;;
68866;SDS011;56451;44.804;20.476;2022-08-21T06:56:14;9.30;;;7.25;;
68866;SDS011;56451;44.804;20.476;2022-08-21T06:58:40;11.10;;;6.10;;
68866;SDS011;56451;44.804;20.476;2022-08-21T07:01:06;10.20;;;6.53;;
68866;SDS011;56451;44.804;20.476;2022-08-21T07:03:33;8.70;;;6.25;;
68866;SDS011;56451;44.804;20.476;2022-08-21T07:06:04;9.43;;;5.78;;
68866;SDS011;56451;44.804;20.476;2022-08-21T07:08:31;9.32;;;5.78;;
68866;SDS011;56451;44.804;20.476;2022-08-21T07:10:57;8.40;;;5.70;;
68866;SDS011;56451;44.804;20.476;2022-08-21T07:13:25;11.63;;;6.93;;
68866;SDS011;56451;44.804;20.476;2022-08-21T07:15:51;8.77;;;5.70;;
68866;SDS011;56451;44.804;20.476;2022-08-21T07:18:17;8.97;;;5.80;;
68866;SDS011;56451;44.804;20.476;2022-08-21T07:20:43;9.43;;;5.60;;
68866;SDS011;56451;44.804;20.476;2022-08-21T07:23:10;8.30;;;5.93;;
68866;SDS011;56451;44.804;20.476;2022-08-21T07:25:41;12.90;;;5.60;;
68866;SDS011;56451;44.804;20.476;2022-08-21T07:28:07;8.50;;;5.55;;
68866;SDS011;56451;44.804;20.476;2022-08-21T07:30:32;7.20;;;4.80;;
68866;SDS011;56451;44.804;20.476;2022-08-21T07:32:58;8.57;;;5.45;;
68866;SDS011;56451;44.804;20.476;2022-08-21T07:35:24;6.47;;;5.20;;
68866;SDS011;56451;44.804;20.476;2022-08-21T07:37:50;9.18;;;4.97;;
68866;SDS011;56451;44.804;20.476;2022-08-21T07:40:16;10.77;;;5.10;;
68866;SDS011;56451;44.804;20.476;2022-08-21T07:42:43;7.75;;;5.13;;
68866;SDS011;56451;44.804;20.476;2022-08-21T07:45:11;5.82;;;4.45;;
68866;SDS011;56451;44.804;20.476;2022-08-21T07:47:38;6.35;;;4.10;;
68866;SDS011;56451;44.804;20.476;2022-08-21T07:50:05;6.15;;;4.65;;
68866;SDS011;56451;44.804;20.476;2022-08-21T07:52:32;8.83;;;4.97;;
68866;SDS011;56451;44.804;20.476;2022-08-21T07:54:59;7.38;;;5.10;;
68866;SDS011;56451;44.804;20.476;2022-08-21T07:57:25;8.77;;;5.68;;
68866;SDS011;56451;44.804;20.476;2022-08-21T07:59:51;8.18;;;5.80;;
68866;SDS011;56451;44.804;20.476;2022-08-21T08:02:27;8.83;;;5.80;;
68866;SDS011;56451;44.804;20.476;2022-08-21T08:04:58;9.68;;;5.65;;
68866;SDS011;56451;44.804;20.476;2022-08-21T08:07:31;11.43;;;6.57;;
68866;SDS011;56451;44.804;20.476;2022-08-21T08:09:57;9.35;;;6.28;;
68866;SDS011;56451;44.804;20.476;2022-08-21T08:12:23;9.10;;;6.63;;
68866;SDS011;56451;44.804;20.476;2022-08-21T08:14:58;9.80;;;5.90;;
68866;SDS011;56451;44.804;20.476;2022-08-21T08:17:25;12.43;;;7.22;;
68866;SDS011;56451;44.804;20.476;2022-08-21T08:19:52;8.75;;;6.55;;
68866;SDS011;56451;44.804;20.476;2022-08-21T08:22:19;10.07;;;6.97;;
68866;SDS011;56451;44.804;20.476;2022-08-21T08:24:49;11.00;;;7.33;;
68866;SDS011;56451;44.804;20.476;2022-08-21T08:27:16;12.10;;;6.93;;
68866;SDS011;56451;44.804;20.476;2022-08-21T08:29:43;13.02;;;8.32;;
68866;SDS011;56451;44.804;20.476;2022-08-21T08:32:09;11.20;;;8.23;;
68866;SDS011;56451;44.804;20.476;2022-08-21T08:34:35;15.40;;;9.57;;
68866;SDS011;56451;44.804;20.476;2022-08-21T08:37:02;14.07;;;9.95;;
68866;SDS011;56451;44.804;20.476;2022-08-21T08:39:29;15.55;;;9.30;;
68866;SDS011;56451;44.804;20.476;2022-08-21T08:44:32;13.45;;;9.80;;
68866;SDS011;56451;44.804;20.476;2022-08-21T08:46:59;15.23;;;9.47;;
68866;SDS011;56451;44.804;20.476;2022-08-21T08:54:51;15.80;;;9.38;;
68866;SDS011;56451;44.804;20.476;2022-08-21T08:57:29;14.30;;;8.50;;
68866;SDS011;56451;44.804;20.476;2022-08-21T08:59:58;13.27;;;9.77;;
68866;SDS011;56451;44.804;20.476;2022-08-21T09:02:26;13.57;;;8.35;;
68866;SDS011;56451;44.804;20.476;2022-08-21T09:04:55;11.25;;;8.27;;
68866;SDS011;56451;44.804;20.476;2022-08-21T09:07:25;12.23;;;8.93;;
68866;SDS011;56451;44.804;20.476;2022-08-21T09:10:02;12.95;;;9.23;;
68866;SDS011;56451;44.804;20.476;2022-08-21T09:12:39;15.70;;;9.87;;
68866;SDS011;56451;44.804;20.476;2022-08-21T09:15:15;15.18;;;8.98;;
68866;SDS011;56451;44.804;20.476;2022-08-21T09:25:42;14.37;;;8.50;;
68866;SDS011;56451;44.804;20.476;2022-08-21T09:28:31;12.43;;;8.38;;
68866;SDS011;56451;44.804;20.476;2022-08-21T09:30:59;14.63;;;9.02;;
68866;SDS011;56451;44.804;20.476;2022-08-21T09:33:27;15.07;;;9.05;;
68866;SDS011;56451;44.804;20.476;2022-08-21T09:35:55;15.00;;;9.23;;
68866;SDS011;56451;44.804;20.476;2022-08-21T09:38:31;14.47;;;8.73;;
68866;SDS011;56451;44.804;20.476;2022-08-21T09:41:04;12.43;;;8.52;;
68866;SDS011;56451;44.804;20.476;2022-08-21T09:43:32;10.63;;;8.52;;
68866;SDS011;56451;44.804;20.476;2022-08-21T09:46:04;13.07;;;8.65;;
68866;SDS011;56451;44.804;20.476;2022-08-21T09:48:49;19.27;;;8.27;;
68866;SDS011;56451;44.804;20.476;2022-08-21T09:51:18;12.80;;;7.93;;
68866;SDS011;56451;44.804;20.476;2022-08-21T09:53:49;16.20;;;9.48;;
68866;SDS011;56451;44.804;20.476;2022-08-21T09:56:32;12.18;;;8.23;;
68866;SDS011;56451;44.804;20.476;2022-08-21T09:59:28;12.32;;;8.32;;
68866;SDS011;56451;44.804;20.476;2022-08-21T10:01:59;13.88;;;8.65;;
68866;SDS011;56451;44.804;20.476;2022-08-21T10:07:08;14.73;;;8.63;;
68866;SDS011;56451;44.804;20.476;2022-08-21T10:09:34;12.80;;;8.50;;
68866;SDS011;56451;44.804;20.476;2022-08-21T10:17:17;12.77;;;7.60;;
68866;SDS011;56451;44.804;20.476;2022-08-21T10:25:52;9.80;;;6.28;;
68866;SDS011;56451;44.804;20.476;2022-08-21T10:31:03;7.70;;;4.87;;
68866;SDS011;56451;44.804;20.476;2022-08-21T10:47:36;6.30;;;4.90;;
68866;SDS011;56451;44.804;20.476;2022-08-21T10:56:13;8.38;;;5.05;;
68866;SDS011;56451;44.804;20.476;2022-08-21T11:01:15;5.78;;;3.95;;
68866;SDS011;56451;44.804;20.476;2022-08-21T11:03:52;6.85;;;4.35;;
68866;SDS011;56451;44.804;20.476;2022-08-21T11:06:34;5.72;;;3.53;;
68866;SDS011;56451;44.804;20.476;2022-08-21T11:09:11;8.30;;;3.65;;
68866;SDS011;56451;44.804;20.476;2022-08-21T11:12:17;6.60;;;3.27;;
68866;SDS011;56451;44.804;20.476;2022-08-21T11:14:39;7.13;;;2.92;;
68866;SDS011;56451;44.804;20.476;2022-08-21T11:17:14;7.22;;;3.63;;
68866;SDS011;56451;44.804;20.476;2022-08-21T11:27:28;6.80;;;5.05;;
68866;SDS011;56451;44.804;20.476;2022-08-21T11:30:03;7.20;;;4.10;;
68866;SDS011;56451;44.804;20.476;2022-08-21T11:38:33;8.07;;;4.63;;
68866;SDS011;56451;44.804;20.476;2022-08-21T11:43:46;5.85;;;3.58;;
68866;SDS011;56451;44.804;20.476;2022-08-21T11:52:13;7.18;;;4.53;;
68866;SDS011;56451;44.804;20.476;2022-08-21T11:54:38;7.03;;;4.55;;
68866;SDS011;56451;44.804;20.476;2022-08-21T11:57:41;8.40;;;5.30;;
68866;SDS011;56451;44.804;20.476;2022-08-21T12:00:16;6.83;;;4.93;;
68866;SDS011;56451;44.804;20.476;2022-08-21T12:02:58;7.50;;;5.43;;
68866;SDS011;56451;44.804;20.476;2022-08-21T12:05:36;7.78;;;5.63;;
68866;SDS011;56451;44.804;20.476;2022-08-21T12:08:13;147.70;;;43.22;;
68866;SDS011;56451;44.804;20.476;2022-08-21T12:13:37;29.27;;;13.03;;
68866;SDS011;56451;44.804;20.476;2022-08-21T12:16:12;19.38;;;10.88;;
68866;SDS011;56451;44.804;20.476;2022-08-21T12:18:41;16.92;;;8.82;;
68866;SDS011;56451;44.804;20.476;2022-08-21T12:21:19;13.25;;;7.68;;
68866;SDS011;56451;44.804;20.476;2022-08-21T12:26:49;9.93;;;6.60;;
68866;SDS011;56451;44.804;20.476;2022-08-21T12:29:33;10.35;;;6.82;;
68866;SDS011;56451;44.804;20.476;2022-08-21T12:34:50;10.30;;;7.35;;
68866;SDS011;56451;44.804;20.476;2022-08-21T12:40:23;10.50;;;7.17;;
68866;SDS011;56451;44.804;20.476;2022-08-21T12:42:53;11.55;;;7.78;;
68866;SDS011;56451;44.804;20.476;2022-08-21T12:45:26;11.90;;;7.78;;
68866;SDS011;56451;44.804;20.476;2022-08-21T12:47:57;9.30;;;7.28;;
68866;SDS011;56451;44.804;20.476;2022-08-21T12:50:36;9.45;;;6.95;;
68866;SDS011;56451;44.804;20.476;2022-08-21T12:55:32;8.68;;;6.80;;
68866;SDS011;56451;44.804;20.476;2022-08-21T12:57:59;9.65;;;6.78;;
68866;SDS011;56451;44.804;20.476;2022-08-21T13:00:26;7.88;;;6.22;;
68866;SDS011;56451;44.804;20.476;2022-08-21T13:02:53;9.80;;;5.93;;
68866;SDS011;56451;44.804;20.476;2022-08-21T13:07:55;7.22;;;5.25;;
68866;SDS011;56451;44.804;20.476;2022-08-21T13:10:26;6.30;;;5.13;;
68866;SDS011;56451;44.804;20.476;2022-08-21T13:12:56;6.20;;;4.97;;
68866;SDS011;56451;44.804;20.476;2022-08-21T13:15:25;6.43;;;4.80;;
68866;SDS011;56451;44.804;20.476;2022-08-21T13:17:54;7.20;;;5.03;;
68866;SDS011;56451;44.804;20.476;2022-08-21T13:22:57;4.65;;;3.90;;
68866;SDS011;56451;44.804;20.476;2022-08-21T13:25:26;6.43;;;4.97;;
68866;SDS011;56451;44.804;20.476;2022-08-21T13:28:09;4.80;;;4.00;;
68866;SDS011;56451;44.804;20.476;2022-08-21T13:30:39;6.47;;;4.40;;
68866;SDS011;56451;44.804;20.476;2022-08-21T13:33:10;4.70;;;3.60;;
68866;SDS011;56451;44.804;20.476;2022-08-21T13:38:45;7.30;;;3.83;;
68866;SDS011;56451;44.804;20.476;2022-08-21T13:43:44;5.53;;;3.17;;
68866;SDS011;56451;44.804;20.476;2022-08-21T13:46:13;5.28;;;3.60;;
68866;SDS011;56451;44.804;20.476;2022-08-21T13:48:40;3.78;;;3.40;;
68866;SDS011;56451;44.804;20.476;2022-08-21T13:51:07;4.45;;;3.50;;
68866;SDS011;56451;44.804;20.476;2022-08-21T13:53:36;4.43;;;3.20;;
68866;SDS011;56451;44.804;20.476;2022-08-21T13:56:21;4.10;;;3.67;;
68866;SDS011;56451;44.804;20.476;2022-08-21T13:58:48;4.15;;;3.33;;
68866;SDS011;56451;44.804;20.476;2022-08-21T14:01:33;3.77;;;3.10;;
68866;SDS011;56451;44.804;20.476;2022-08-21T14:04:23;3.20;;;2.90;;
68866;SDS011;56451;44.804;20.476;2022-08-21T14:07:01;3.67;;;2.50;;
68866;SDS011;56451;44.804;20.476;2022-08-21T14:09:43;3.28;;;2.80;;
68866;SDS011;56451;44.804;20.476;2022-08-21T14:12:13;2.80;;;2.20;;
68866;SDS011;56451;44.804;20.476;2022-08-21T14:14:44;3.55;;;2.90;;
68866;SDS011;56451;44.804;20.476;2022-08-21T14:17:13;3.90;;;2.60;;
68866;SDS011;56451;44.804;20.476;2022-08-21T14:19:50;3.35;;;2.97;;
68866;SDS011;56451;44.804;20.476;2022-08-21T14:25:02;4.05;;;3.08;;
68866;SDS011;56451;44.804;20.476;2022-08-21T14:27:31;3.75;;;2.60;;
68866;SDS011;56451;44.804;20.476;2022-08-21T14:30:00;4.87;;;2.87;;
68866;SDS011;56451;44.804;20.476;2022-08-21T14:32:38;3.65;;;2.97;;
68866;SDS011;56451;44.804;20.476;2022-08-21T14:35:06;4.43;;;2.92;;
68866;SDS011;56451;44.804;20.476;2022-08-21T14:37:32;4.05;;;3.20;;
68866;SDS011;56451;44.804;20.476;2022-08-21T14:39:59;4.50;;;3.20;;
68866;SDS011;56451;44.804;20.476;2022-08-21T14:42:25;4.10;;;3.47;;
68866;SDS011;56451;44.804;20.476;2022-08-21T14:44:51;5.30;;;3.65;;
68866;SDS011;56451;44.804;20.476;2022-08-21T14:47:19;3.75;;;3.22;;
68866;SDS011;56451;44.804;20.476;2022-08-21T14:49:45;5.33;;;4.43;;
68866;SDS011;56451;44.804;20.476;2022-08-21T14:52:11;5.93;;;4.22;;
68866;SDS011;56451;44.804;20.476;2022-08-21T14:54:37;6.20;;;4.70;;
68866;SDS011;56451;44.804;20.476;2022-08-21T14:57:05;5.80;;;4.73;;
68866;SDS011;56451;44.804;20.476;2022-08-21T14:59:34;5.93;;;4.80;;
68866;SDS011;56451;44.804;20.476;2022-08-21T15:02:01;9.25;;;5.40;;
68866;SDS011;56451;44.804;20.476;2022-08-21T15:04:29;6.17;;;4.60;;
68866;SDS011;56451;44.804;20.476;2022-08-21T15:06:55;5.40;;;4.35;;
68866;SDS011;56451;44.804;20.476;2022-08-21T15:09:21;5.93;;;4.50;;
68866;SDS011;56451;44.804;20.476;2022-08-21T15:11:51;5.38;;;4.53;;
68866;SDS011;56451;44.804;20.476;2022-08-21T15:14:19;6.28;;;4.90;;
68866;SDS011;56451;44.804;20.476;2022-08-21T15:16:53;6.03;;;5.30;;
68866;SDS011;56451;44.804;20.476;2022-08-21T15:19:19;8.65;;;5.82;;
68866;SDS011;56451;44.804;20.476;2022-08-21T15:21:45;7.88;;;6.00;;
68866;SDS011;56451;44.804;20.476;2022-08-21T15:24:11;5.93;;;4.90;;
68866;SDS011;56451;44.804;20.476;2022-08-21T15:26:37;6.05;;;5.22;;
68866;SDS011;56451;44.804;20.476;2022-08-21T15:29:04;8.03;;;6.10;;
68866;SDS011;56451;44.804;20.476;2022-08-21T15:31:31;6.97;;;5.47;;
68866;SDS011;56451;44.804;20.476;2022-08-21T15:33:57;8.20;;;6.30;;
68866;SDS011;56451;44.804;20.476;2022-08-21T15:36:23;8.73;;;5.97;;
68866;SDS011;56451;44.804;20.476;2022-08-21T15:38:49;7.60;;;5.88;;
68866;SDS011;56451;44.804;20.476;2022-08-21T15:41:15;7.97;;;5.85;;
68866;SDS011;56451;44.804;20.476;2022-08-21T15:43:42;8.33;;;6.00;;
68866;SDS011;56451;44.804;20.476;2022-08-21T15:46:12;6.95;;;5.97;;
68866;SDS011;56451;44.804;20.476;2022-08-21T15:48:39;8.43;;;6.05;;
68866;SDS011;56451;44.804;20.476;2022-08-21T15:51:05;9.20;;;7.10;;
68866;SDS011;56451;44.804;20.476;2022-08-21T15:53:31;9.17;;;6.80;;
68866;SDS011;56451;44.804;20.476;2022-08-21T15:56:00;10.30;;;7.00;;
68866;SDS011;56451;44.804;20.476;2022-08-21T15:58:27;9.07;;;7.47;;
68866;SDS011;56451;44.804;20.476;2022-08-21T16:00:53;9.15;;;6.95;;
68866;SDS011;56451;44.804;20.476;2022-08-21T16:03:19;10.20;;;7.93;;
68866;SDS011;56451;44.804;20.476;2022-08-21T16:05:47;10.10;;;7.20;;
68866;SDS011;56451;44.804;20.476;2022-08-21T16:08:18;8.82;;;6.68;;
68866;SDS011;56451;44.804;20.476;2022-08-21T16:10:45;8.80;;;6.53;;
68866;SDS011;56451;44.804;20.476;2022-08-21T16:13:14;9.37;;;7.60;;
68866;SDS011;56451;44.804;20.476;2022-08-21T16:15:45;9.57;;;7.40;;
68866;SDS011;56451;44.804;20.476;2022-08-21T16:18:11;10.13;;;6.80;;
68866;SDS011;56451;44.804;20.476;2022-08-21T16:20:37;8.95;;;6.32;;
68866;SDS011;56451;44.804;20.476;2022-08-21T16:23:03;10.07;;;6.73;;